Terminal Aerodrome Forecast
Issued by NWS Shreveport, LA

Home | Current Version | Previous Version | Text Only | Print | Product List | Glossary On
Versions: 1 2 3 4 5 6 7 8 9 10 11 12 13 14 15 16 17 18 19 20 21 22
489
FTUS44 KSHV 011132
TAFMLU
TAF
KMLU 011132Z 0112/0212 VRB03KT P6SM VCTS BKN015CB
      TEMPO 0112/0116 4SM -TSRA BR BKN025CB
     FM011600 VRB05KT 5SM -TSRA BR OVC030CB
     FM020000 19005KT 5SM -TSRA BR OVC015CB
      TEMPO 0208/0212 2SM TSRA BR OVC008CB=

USA.gov is the U.S. government's official web portal to all federal, state and local government web resources and services.